sensor_id;sensor_type;location;lat;lon;timestamp;pressure;altitude;pressure_sealevel;temperature;humidity
41260;BME280;26993;48.958;9.330;2022-07-04T00:01:51;98579.84;;;19.06;85.40
41260;BME280;26993;48.958;9.330;2022-07-04T00:04:38;98583.19;;;19.09;85.72
41260;BME280;26993;48.958;9.330;2022-07-04T00:07:25;98590.13;;;19.10;86.15
41260;BME280;26993;48.958;9.330;2022-07-04T00:10:13;98575.16;;;19.15;85.83
41260;BME280;26993;48.958;9.330;2022-07-04T00:13:01;98571.47;;;19.21;84.79
41260;BME280;26993;48.958;9.330;2022-07-04T00:15:48;98573.94;;;19.26;84.76
41260;BME280;26993;48.958;9.330;2022-07-04T00:18:35;98576.56;;;19.26;84.45
41260;BME280;26993;48.958;9.330;2022-07-04T00:21:22;98575.88;;;19.21;85.12
41260;BME280;26993;48.958;9.330;2022-07-04T00:24:08;98577.38;;;19.26;85.02
41260;BME280;26993;48.958;9.330;2022-07-04T00:26:55;98571.19;;;19.29;84.78
41260;BME280;26993;48.958;9.330;2022-07-04T00:29:43;98568.41;;;19.35;84.75
41260;BME280;26993;48.958;9.330;2022-07-04T00:32:30;98573.25;;;19.44;84.74
41260;BME280;26993;48.958;9.330;2022-07-04T00:35:17;98580.59;;;19.34;84.66
41260;BME280;26993;48.958;9.330;2022-07-04T00:38:04;98573.94;;;19.26;85.20
41260;BME280;26993;48.958;9.330;2022-07-04T00:40:50;98581.22;;;19.41;83.96
41260;BME280;26993;48.958;9.330;2022-07-04T00:43:37;98577.75;;;19.41;83.73
41260;BME280;26993;48.958;9.330;2022-07-04T00:46:25;98573.28;;;19.68;82.45
41260;BME280;26993;48.958;9.330;2022-07-04T00:49:14;98572.44;;;19.68;82.17
41260;BME280;26993;48.958;9.330;2022-07-04T00:52:01;98566.75;;;19.56;82.72
41260;BME280;26993;48.958;9.330;2022-07-04T00:54:48;98574.81;;;19.74;82.22
41260;BME280;26993;48.958;9.330;2022-07-04T00:57:35;98578.28;;;19.74;81.54
41260;BME280;26993;48.958;9.330;2022-07-04T01:00:22;98578.81;;;19.60;82.33
41260;BME280;26993;48.958;9.330;2022-07-04T01:03:10;98589.19;;;19.62;82.46
41260;BME280;26993;48.958;9.330;2022-07-04T01:05:58;98582.00;;;19.69;81.08
41260;BME280;26993;48.958;9.330;2022-07-04T01:08:46;98585.03;;;19.56;81.53
41260;BME280;26993;48.958;9.330;2022-07-04T01:11:33;98583.06;;;19.63;81.01
41260;BME280;26993;48.958;9.330;2022-07-04T01:14:20;98577.84;;;19.63;80.58
41260;BME280;26993;48.958;9.330;2022-07-04T01:17:06;98579.72;;;19.59;80.05
41260;BME280;26993;48.958;9.330;2022-07-04T01:19:55;98583.06;;;19.63;78.97
41260;BME280;26993;48.958;9.330;2022-07-04T01:22:43;98590.03;;;19.62;78.29
41260;BME280;26993;48.958;9.330;2022-07-04T01:25:30;98586.47;;;19.65;77.57
41260;BME280;26993;48.958;9.330;2022-07-04T01:28:18;98583.06;;;19.63;77.23
41260;BME280;26993;48.958;9.330;2022-07-04T01:31:05;98589.38;;;19.57;77.50
41260;BME280;26993;48.958;9.330;2022-07-04T01:33:52;98586.53;;;19.40;78.24
41260;BME280;26993;48.958;9.330;2022-07-04T01:36:38;98588.81;;;19.24;79.13
41260;BME280;26993;48.958;9.330;2022-07-04T01:39:27;98598.06;;;19.32;78.94
41260;BME280;26993;48.958;9.330;2022-07-04T01:42:14;98600.75;;;19.31;79.01
41260;BME280;26993;48.958;9.330;2022-07-04T01:45:01;98596.41;;;19.30;79.82
41260;BME280;26993;48.958;9.330;2022-07-04T01:47:48;98600.69;;;19.32;79.63
41260;BME280;26993;48.958;9.330;2022-07-04T01:50:35;98596.09;;;19.39;79.27
41260;BME280;26993;48.958;9.330;2022-07-04T01:53:21;98604.75;;;19.41;79.14
41260;BME280;26993;48.958;9.330;2022-07-04T01:56:10;98606.41;;;19.44;78.66
41260;BME280;26993;48.958;9.330;2022-07-04T01:58:56;98611.25;;;19.29;79.31
41260;BME280;26993;48.958;9.330;2022-07-04T02:01:44;98611.88;;;19.36;78.93
41260;BME280;26993;48.958;9.330;2022-07-04T02:04:30;98615.19;;;19.16;80.51
41260;BME280;26993;48.958;9.330;2022-07-04T02:07:17;98616.94;;;19.15;80.60
41260;BME280;26993;48.958;9.330;2022-07-04T02:10:05;98613.47;;;19.15;80.90
41260;BME280;26993;48.958;9.330;2022-07-04T02:12:53;98617.91;;;19.13;80.76
41260;BME280;26993;48.958;9.330;2022-07-04T02:15:49;98614.38;;;19.14;80.22
41260;BME280;26993;48.958;9.330;2022-07-04T02:18:35;98628.47;;;19.10;80.37
41260;BME280;26993;48.958;9.330;2022-07-04T02:21:22;98631.16;;;19.07;79.99
41260;BME280;26993;48.958;9.330;2022-07-04T02:24:09;98634.69;;;19.06;79.82
41260;BME280;26993;48.958;9.330;2022-07-04T02:26:56;98637.72;;;18.92;80.30
41260;BME280;26993;48.958;9.330;2022-07-04T02:29:44;98635.69;;;19.01;79.67
41260;BME280;26993;48.958;9.330;2022-07-04T02:32:31;98637.72;;;18.92;79.66
41260;BME280;26993;48.958;9.330;2022-07-04T02:35:17;98635.63;;;18.76;79.98
41260;BME280;26993;48.958;9.330;2022-07-04T02:38:04;98636.38;;;18.80;79.77
41260;BME280;26993;48.958;9.330;2022-07-04T02:40:51;98640.56;;;18.84;79.42
41260;BME280;26993;48.958;9.330;2022-07-04T02:43:37;98645.41;;;18.96;79.22
41260;BME280;26993;48.958;9.330;2022-07-04T02:46:26;98639.63;;;18.86;78.94
41260;BME280;26993;48.958;9.330;2022-07-04T02:49:12;98647.38;;;18.90;78.85
41260;BME280;26993;48.958;9.330;2022-07-04T02:51:59;98662.34;;;18.83;79.05
41260;BME280;26993;48.958;9.330;2022-07-04T02:54:46;98656.53;;;18.75;79.00
41260;BME280;26993;48.958;9.330;2022-07-04T02:57:33;98658.19;;;18.77;78.67
41260;BME280;26993;48.958;9.330;2022-07-04T03:00:22;98665.84;;;18.55;79.60
41260;BME280;26993;48.958;9.330;2022-07-04T03:03:10;98671.31;;;18.46;80.26
41260;BME280;26993;48.958;9.330;2022-07-04T03:05:57;98673.31;;;18.37;80.84
41260;BME280;26993;48.958;9.330;2022-07-04T03:08:44;98678.13;;;18.21;81.18
41260;BME280;26993;48.958;9.330;2022-07-04T03:11:31;98679.47;;;18.05;82.35
41260;BME280;26993;48.958;9.330;2022-07-04T03:14:17;98681.50;;;17.95;82.64
41260;BME280;26993;48.958;9.330;2022-07-04T03:17:04;98684.63;;;18.06;82.35
41260;BME280;26993;48.958;9.330;2022-07-04T03:19:52;98689.31;;;17.95;82.74
41260;BME280;26993;48.958;9.330;2022-07-04T03:22:39;98694.28;;;18.03;82.69
41260;BME280;26993;48.958;9.330;2022-07-04T03:25:25;98688.94;;;18.07;82.38
41260;BME280;26993;48.958;9.330;2022-07-04T03:28:13;98682.78;;;18.10;81.44
41260;BME280;26993;48.958;9.330;2022-07-04T03:31:00;98693.31;;;18.07;81.81
41260;BME280;26993;48.958;9.330;2022-07-04T03:33:46;98685.56;;;18.35;80.11
41260;BME280;26993;48.958;9.330;2022-07-04T03:36:35;98682.59;;;18.18;80.15
41260;BME280;26993;48.958;9.330;2022-07-04T03:39:21;98688.56;;;18.21;80.52
41260;BME280;26993;48.958;9.330;2022-07-04T03:42:08;98705.16;;;18.19;80.71
41260;BME280;26993;48.958;9.330;2022-07-04T03:44:55;98707.94;;;18.13;81.04
41260;BME280;26993;48.958;9.330;2022-07-04T03:47:42;98697.22;;;18.23;80.61
41260;BME280;26993;48.958;9.330;2022-07-04T03:50:28;98706.22;;;18.12;80.85
41260;BME280;26993;48.958;9.330;2022-07-04T03:53:17;98707.03;;;18.14;81.06
41260;BME280;26993;48.958;9.330;2022-07-04T03:56:05;98725.44;;;18.07;81.00
41260;BME280;26993;48.958;9.330;2022-07-04T03:58:53;98720.28;;;18.06;81.35
41260;BME280;26993;48.958;9.330;2022-07-04T04:01:40;98714.72;;;18.18;80.79
41260;BME280;26993;48.958;9.330;2022-07-04T04:04:26;98711.22;;;18.19;80.92
41260;BME280;26993;48.958;9.330;2022-07-04T04:07:30;98706.91;;;18.18;81.50
41260;BME280;26993;48.958;9.330;2022-07-04T04:10:20;98716.22;;;18.27;80.04
41260;BME280;26993;48.958;9.330;2022-07-04T04:13:07;98712.88;;;18.22;80.03
41260;BME280;26993;48.958;9.330;2022-07-04T04:15:53;98715.59;;;18.19;80.40
41260;BME280;26993;48.958;9.330;2022-07-04T04:18:40;98710.41;;;18.17;80.72
41260;BME280;26993;48.958;9.330;2022-07-04T04:21:27;98719.16;;;18.15;80.82
41260;BME280;26993;48.958;9.330;2022-07-04T04:24:14;98711.03;;;18.26;79.91
41260;BME280;26993;48.958;9.330;2022-07-04T04:27:02;98710.84;;;18.32;80.24
41260;BME280;26993;48.958;9.330;2022-07-04T04:29:49;98703.13;;;18.29;80.59
41260;BME280;26993;48.958;9.330;2022-07-04T04:32:36;98713.63;;;18.27;80.95
41260;BME280;26993;48.958;9.330;2022-07-04T04:35:23;98718.66;;;18.33;80.34
41260;BME280;26993;48.958;9.330;2022-07-04T04:38:10;98727.31;;;18.35;80.85
41260;BME280;26993;48.958;9.330;2022-07-04T04:40:56;98721.91;;;18.42;80.46
41260;BME280;26993;48.958;9.330;2022-07-04T04:43:45;98738.06;;;18.53;79.61
41260;BME280;26993;48.958;9.330;2022-07-04T04:46:32;98740.31;;;18.65;79.48
41260;BME280;26993;48.958;9.330;2022-07-04T04:49:19;98755.69;;;18.75;78.91
41260;BME280;26993;48.958;9.330;2022-07-04T04:52:06;98758.94;;;18.83;79.55
41260;BME280;26993;48.958;9.330;2022-07-04T04:54:52;98765.88;;;18.84;79.73
41260;BME280;26993;48.958;9.330;2022-07-04T04:57:39;98772.69;;;18.88;79.90
41260;BME280;26993;48.958;9.330;2022-07-04T05:00:27;98776.16;;;18.89;79.97
41260;BME280;26993;48.958;9.330;2022-07-04T05:03:14;98774.06;;;19.01;79.32
41260;BME280;26993;48.958;9.330;2022-07-04T05:06:01;98780.97;;;19.04;78.56
41260;BME280;26993;48.958;9.330;2022-07-04T05:08:48;98779.41;;;19.25;76.59
41260;BME280;26993;48.958;9.330;2022-07-04T05:11:35;98779.75;;;19.14;77.16
41260;BME280;26993;48.958;9.330;2022-07-04T05:14:21;98777.41;;;19.33;76.71
41260;BME280;26993;48.958;9.330;2022-07-04T05:17:10;98772.50;;;19.51;75.64
41260;BME280;26993;48.958;9.330;2022-07-04T05:19:56;98779.50;;;19.50;76.26
41260;BME280;26993;48.958;9.330;2022-07-04T05:22:43;98778.41;;;19.56;75.96
41260;BME280;26993;48.958;9.330;2022-07-04T05:25:31;98780.72;;;19.65;76.15
41260;BME280;26993;48.958;9.330;2022-07-04T05:28:18;98776.63;;;19.84;75.82
41260;BME280;26993;48.958;9.330;2022-07-04T05:31:05;98782.16;;;20.26;74.34
41260;BME280;26993;48.958;9.330;2022-07-04T05:33:53;98774.63;;;21.77;69.48
41260;BME280;26993;48.958;9.330;2022-07-04T05:36:40;98767.84;;;22.53;66.86
41260;BME280;26993;48.958;9.330;2022-07-04T05:39:27;98762.00;;;23.92;62.78
41260;BME280;26993;48.958;9.330;2022-07-04T05:42:14;98754.88;;;26.32;57.38
41260;BME280;26993;48.958;9.330;2022-07-04T05:45:01;98755.19;;;28.04;52.81
41260;BME280;26993;48.958;9.330;2022-07-04T05:47:47;98752.56;;;28.17;51.84
41260;BME280;26993;48.958;9.330;2022-07-04T05:50:35;98757.19;;;28.00;51.58
41260;BME280;26993;48.958;9.330;2022-07-04T05:53:22;98751.59;;;27.92;52.17
41260;BME280;26993;48.958;9.330;2022-07-04T05:56:09;98757.88;;;26.96;53.49
41260;BME280;26993;48.958;9.330;2022-07-04T05:58:56;98760.56;;;25.50;56.06
41260;BME280;26993;48.958;9.330;2022-07-04T06:01:42;98773.59;;;24.23;59.13
41260;BME280;26993;48.958;9.330;2022-07-04T06:04:29;98775.69;;;23.29;62.46
41260;BME280;26993;48.958;9.330;2022-07-04T06:07:17;98774.75;;;22.93;64.09
41260;BME280;26993;48.958;9.330;2022-07-04T06:10:05;98767.59;;;23.14;63.31
41260;BME280;26993;48.958;9.330;2022-07-04T06:12:52;98775.09;;;22.86;63.39
41260;BME280;26993;48.958;9.330;2022-07-04T06:15:39;98776.28;;;22.40;65.44
41260;BME280;26993;48.958;9.330;2022-07-04T06:18:25;98777.19;;;22.39;65.35
41260;BME280;26993;48.958;9.330;2022-07-04T06:21:12;98774.84;;;22.12;66.13
41260;BME280;26993;48.958;9.330;2022-07-04T06:24:01;98778.13;;;22.17;66.02
41260;BME280;26993;48.958;9.330;2022-07-04T06:26:48;98763.53;;;21.91;66.28
41260;BME280;26993;48.958;9.330;2022-07-04T06:29:35;98764.13;;;21.77;66.61
41260;BME280;26993;48.958;9.330;2022-07-04T06:32:22;98761.81;;;21.69;66.61
41260;BME280;26993;48.958;9.330;2022-07-04T06:35:08;98760.88;;;21.50;67.13
41260;BME280;26993;48.958;9.330;2022-07-04T06:38:15;98768.56;;;21.32;68.08
41260;BME280;26993;48.958;9.330;2022-07-04T06:41:04;98766.47;;;21.40;68.20
41260;BME280;26993;48.958;9.330;2022-07-04T06:43:50;98766.00;;;21.31;68.26
41260;BME280;26993;48.958;9.330;2022-07-04T06:46:37;98764.47;;;21.47;67.91
41260;BME280;26993;48.958;9.330;2022-07-04T06:49:24;98765.75;;;21.59;68.12
41260;BME280;26993;48.958;9.330;2022-07-04T06:52:10;98771.94;;;21.56;68.65
41260;BME280;26993;48.958;9.330;2022-07-04T06:54:57;98778.84;;;20.92;69.85
41260;BME280;26993;48.958;9.330;2022-07-04T06:57:46;98772.78;;;21.36;70.10
41260;BME280;26993;48.958;9.330;2022-07-04T07:00:33;98778.34;;;21.71;67.97
41260;BME280;26993;48.958;9.330;2022-07-04T07:03:20;98768.97;;;21.86;67.37
41260;BME280;26993;48.958;9.330;2022-07-04T07:06:07;98765.41;;;21.87;67.26
41260;BME280;26993;48.958;9.330;2022-07-04T07:08:54;98770.19;;;21.35;68.38
41260;BME280;26993;48.958;9.330;2022-07-04T07:11:41;98770.75;;;21.43;69.12
41260;BME280;26993;48.958;9.330;2022-07-04T07:14:29;98768.66;;;21.74;69.31
41260;BME280;26993;48.958;9.330;2022-07-04T07:17:16;98764.13;;;21.77;67.88
41260;BME280;26993;48.958;9.330;2022-07-04T07:20:04;98752.78;;;21.77;68.78
41260;BME280;26993;48.958;9.330;2022-07-04T07:22:51;98753.56;;;21.79;67.93
41260;BME280;26993;48.958;9.330;2022-07-04T07:25:38;98760.06;;;21.70;68.97
41260;BME280;26993;48.958;9.330;2022-07-04T07:28:24;98760.69;;;21.96;68.14
41260;BME280;26993;48.958;9.330;2022-07-04T07:31:12;98754.72;;;22.13;66.89
41260;BME280;26993;48.958;9.330;2022-07-04T07:33:59;98750.41;;;21.91;66.69
41260;BME280;26993;48.958;9.330;2022-07-04T07:36:46;98757.44;;;21.70;67.61
41260;BME280;26993;48.958;9.330;2022-07-04T07:39:33;98755.84;;;21.86;68.31
41260;BME280;26993;48.958;9.330;2022-07-04T07:42:20;98748.75;;;22.09;67.46
41260;BME280;26993;48.958;9.330;2022-07-04T07:45:07;98744.41;;;22.08;67.07
41260;BME280;26993;48.958;9.330;2022-07-04T07:47:56;98745.13;;;22.12;66.18
41260;BME280;26993;48.958;9.330;2022-07-04T07:50:42;98746.06;;;21.90;66.78
41260;BME280;26993;48.958;9.330;2022-07-04T07:53:29;98737.56;;;21.85;66.70
41260;BME280;26993;48.958;9.330;2022-07-04T07:56:16;98747.59;;;21.75;67.03
41260;BME280;26993;48.958;9.330;2022-07-04T07:59:02;98740.66;;;21.74;67.68
41260;BME280;26993;48.958;9.330;2022-07-04T08:01:49;98742.22;;;21.78;66.91
41260;BME280;26993;48.958;9.330;2022-07-04T08:04:37;98744.00;;;21.78;67.67
41260;BME280;26993;48.958;9.330;2022-07-04T08:07:24;98742.81;;;21.64;69.32
41260;BME280;26993;48.958;9.330;2022-07-04T08:10:10;98743.91;;;21.79;67.73
41260;BME280;26993;48.958;9.330;2022-07-04T08:12:57;98737.22;;;21.72;67.40
41260;BME280;26993;48.958;9.330;2022-07-04T08:15:45;98734.94;;;21.64;69.13
41260;BME280;26993;48.958;9.330;2022-07-04T08:21:20;98725.03;;;21.92;67.71
41260;BME280;26993;48.958;9.330;2022-07-04T08:24:06;98728.69;;;21.87;66.07
41260;BME280;26993;48.958;9.330;2022-07-04T08:26:53;98729.81;;;21.82;66.45
41260;BME280;26993;48.958;9.330;2022-07-04T08:29:40;98722.91;;;21.81;67.18
41260;BME280;26993;48.958;9.330;2022-07-04T08:32:27;98725.72;;;21.76;66.68
41260;BME280;26993;48.958;9.330;2022-07-04T08:35:14;98726.28;;;21.83;65.89
41260;BME280;26993;48.958;9.330;2022-07-04T08:38:02;98716.31;;;21.91;66.04
41260;BME280;26993;48.958;9.330;2022-07-04T08:40:49;98716.00;;;21.99;65.48
41260;BME280;26993;48.958;9.330;2022-07-04T08:43:36;98718.63;;;21.58;68.30
41260;BME280;26993;48.958;9.330;2022-07-04T08:46:25;98715.91;;;22.00;66.48
41260;BME280;26993;48.958;9.330;2022-07-04T08:49:18;98715.34;;;22.13;66.21
41260;BME280;26993;48.958;9.330;2022-07-04T08:52:10;98716.06;;;22.16;67.73
41260;BME280;26993;48.958;9.330;2022-07-04T08:55:00;98712.16;;;22.46;65.59
41260;BME280;26993;48.958;9.330;2022-07-04T08:58:05;98715.63;;;22.46;66.78
41260;BME280;26993;48.958;9.330;2022-07-04T09:01:11;98712.28;;;22.62;65.70
41260;BME280;26993;48.958;9.330;2022-07-04T09:04:01;98719.81;;;22.50;63.42
41260;BME280;26993;48.958;9.330;2022-07-04T09:06:49;98722.94;;;22.40;63.20
41260;BME280;26993;48.958;9.330;2022-07-04T09:09:37;98721.00;;;22.81;63.29
41260;BME280;26993;48.958;9.330;2022-07-04T09:12:26;98727.38;;;22.95;63.42
41260;BME280;26993;48.958;9.330;2022-07-04T09:15:13;98726.59;;;22.93;64.14
41260;BME280;26993;48.958;9.330;2022-07-04T09:18:02;98726.31;;;23.17;63.84
41260;BME280;26993;48.958;9.330;2022-07-04T09:20:49;98726.97;;;23.22;63.32
41260;BME280;26993;48.958;9.330;2022-07-04T09:23:39;98729.41;;;23.44;62.51
41260;BME280;26993;48.958;9.330;2022-07-04T09:26:26;98734.09;;;23.72;62.52
41260;BME280;26993;48.958;9.330;2022-07-04T09:29:14;98736.19;;;23.66;63.24
41260;BME280;26993;48.958;9.330;2022-07-04T09:32:01;98735.97;;;23.53;64.05
41260;BME280;26993;48.958;9.330;2022-07-04T09:34:54;98742.63;;;23.77;63.65
41260;BME280;26993;48.958;9.330;2022-07-04T09:37:42;98738.13;;;23.97;61.24
41260;BME280;26993;48.958;9.330;2022-07-04T09:40:32;98742.38;;;24.00;62.06
41260;BME280;26993;48.958;9.330;2022-07-04T09:43:58;98742.31;;;24.01;62.47
41260;BME280;26993;48.958;9.330;2022-07-04T09:46:46;98741.53;;;23.99;62.48
41260;BME280;26993;48.958;9.330;2022-07-04T09:49:33;98745.34;;;24.43;61.51
41260;BME280;26993;48.958;9.330;2022-07-04T09:52:20;98741.53;;;24.65;62.62
41260;BME280;26993;48.958;9.330;2022-07-04T09:55:07;98742.78;;;24.75;62.17
41260;BME280;26993;48.958;9.330;2022-07-04T09:57:55;98751.25;;;24.80;60.41
41260;BME280;26993;48.958;9.330;2022-07-04T10:00:42;98751.19;;;24.82;61.83
41260;BME280;26993;48.958;9.330;2022-07-04T10:03:31;98744.47;;;24.76;61.97
41260;BME280;26993;48.958;9.330;2022-07-04T10:06:19;98753.44;;;23.89;61.08
41260;BME280;26993;48.958;9.330;2022-07-04T10:09:12;98754.06;;;23.76;60.37
41260;BME280;26993;48.958;9.330;2022-07-04T10:11:59;98756.09;;;24.22;60.36
41260;BME280;26993;48.958;9.330;2022-07-04T10:14:47;98756.84;;;24.58;59.85
41260;BME280;26993;48.958;9.330;2022-07-04T10:17:34;98745.59;;;24.88;58.92
41260;BME280;26993;48.958;9.330;2022-07-04T10:20:22;98744.72;;;24.71;59.00
41260;BME280;26993;48.958;9.330;2022-07-04T10:23:09;98750.03;;;24.54;58.98
41260;BME280;26993;48.958;9.330;2022-07-04T10:25:56;98749.66;;;24.78;58.56
41260;BME280;26993;48.958;9.330;2022-07-04T10:28:42;98751.25;;;25.12;57.44
41260;BME280;26993;48.958;9.330;2022-07-04T10:31:31;98755.28;;;25.34;56.95
41260;BME280;26993;48.958;9.330;2022-07-04T10:34:19;98748.41;;;25.31;55.19
41260;BME280;26993;48.958;9.330;2022-07-04T10:37:08;98759.41;;;25.08;57.13
41260;BME280;26993;48.958;9.330;2022-07-04T10:39:55;98755.84;;;24.77;55.67
41260;BME280;26993;48.958;9.330;2022-07-04T10:42:41;98755.84;;;25.09;56.41
41260;BME280;26993;48.958;9.330;2022-07-04T10:45:31;98748.13;;;24.90;55.79
41260;BME280;26993;48.958;9.330;2022-07-04T10:48:19;98744.63;;;25.35;55.92
41260;BME280;26993;48.958;9.330;2022-07-04T10:51:07;98742.59;;;25.57;55.16
41260;BME280;26993;48.958;9.330;2022-07-04T10:54:00;98741.53;;;25.90;55.00
41260;BME280;26993;48.958;9.330;2022-07-04T10:56:49;98741.53;;;25.90;55.26
41260;BME280;26993;48.958;9.330;2022-07-04T10:59:37;98735.66;;;25.99;54.45
41260;BME280;26993;48.958;9.330;2022-07-04T11:02:26;98741.03;;;25.83;53.57
41260;BME280;26993;48.958;9.330;2022-07-04T11:05:13;98739.94;;;26.02;56.16
41260;BME280;26993;48.958;9.330;2022-07-04T11:08:00;98740.47;;;25.78;55.32
41260;BME280;26993;48.958;9.330;2022-07-04T11:10:52;98746.09;;;25.57;55.67
41260;BME280;26993;48.958;9.330;2022-07-04T11:17:11;98736.84;;;26.09;54.20
41260;BME280;26993;48.958;9.330;2022-07-04T11:19:59;98739.09;;;26.16;54.47
41260;BME280;26993;48.958;9.330;2022-07-04T11:22:46;98735.84;;;25.81;53.73
41260;BME280;26993;48.958;9.330;2022-07-04T11:25:34;98728.09;;;25.64;54.66
41260;BME280;26993;48.958;9.330;2022-07-04T11:28:24;98722.41;;;26.01;56.57
41260;BME280;26993;48.958;9.330;2022-07-04T11:31:11;98714.47;;;26.44;56.33
41260;BME280;26993;48.958;9.330;2022-07-04T11:33:58;98711.03;;;26.56;52.44
41260;BME280;26993;48.958;9.330;2022-07-04T11:36:46;98708.56;;;26.82;52.15
41260;BME280;26993;48.958;9.330;2022-07-04T11:39:34;98710.19;;;26.70;51.54
41260;BME280;26993;48.958;9.330;2022-07-04T11:42:20;98695.91;;;26.73;51.46
41260;BME280;26993;48.958;9.330;2022-07-04T11:45:25;98696.28;;;26.81;53.85
41260;BME280;26993;48.958;9.330;2022-07-04T11:48:20;98684.25;;;26.90;51.81
41260;BME280;26993;48.958;9.330;2022-07-04T11:51:16;98682.56;;;26.62;52.20
41260;BME280;26993;48.958;9.330;2022-07-04T11:54:06;98680.44;;;26.81;52.07
41260;BME280;26993;48.958;9.330;2022-07-04T11:57:08;98674.75;;;26.45;52.98
41260;BME280;26993;48.958;9.330;2022-07-04T11:59:57;98673.06;;;26.01;54.01
41260;BME280;26993;48.958;9.330;2022-07-04T12:02:47;98666.09;;;26.71;54.98
41260;BME280;26993;48.958;9.330;2022-07-04T12:05:34;98665.28;;;27.11;52.67
41260;BME280;26993;48.958;9.330;2022-07-04T12:08:22;98663.72;;;27.21;51.93
41260;BME280;26993;48.958;9.330;2022-07-04T12:11:08;98662.91;;;27.20;52.61
41260;BME280;26993;48.958;9.330;2022-07-04T12:13:55;98663.44;;;27.26;52.54
41260;BME280;26993;48.958;9.330;2022-07-04T12:16:42;98667.59;;;27.43;52.18
41260;BME280;26993;48.958;9.330;2022-07-04T12:19:30;98653.03;;;27.10;50.32
41260;BME280;26993;48.958;9.330;2022-07-04T12:22:28;98663.72;;;27.21;53.50
41260;BME280;26993;48.958;9.330;2022-07-04T12:25:23;98647.63;;;27.51;51.67
41260;BME280;26993;48.958;9.330;2022-07-04T12:28:11;98639.34;;;27.56;51.61
41260;BME280;26993;48.958;9.330;2022-07-04T12:30:59;98630.38;;;27.59;51.04
41260;BME280;26993;48.958;9.330;2022-07-04T12:33:54;98635.44;;;27.62;54.36
41260;BME280;26993;48.958;9.330;2022-07-04T12:36:52;98627.81;;;27.44;53.13
41260;BME280;26993;48.958;9.330;2022-07-04T12:39:41;98626.53;;;27.50;53.87
41260;BME280;26993;48.958;9.330;2022-07-04T12:42:32;98615.31;;;27.85;52.31
41260;BME280;26993;48.958;9.330;2022-07-04T12:45:19;98609.03;;;27.86;50.90
41260;BME280;26993;48.958;9.330;2022-07-04T12:48:14;98610.31;;;28.06;50.37
41260;BME280;26993;48.958;9.330;2022-07-04T12:51:10;98610.81;;;28.11;51.72
41260;BME280;26993;48.958;9.330;2022-07-04T12:54:06;98601.16;;;28.23;50.36
41260;BME280;26993;48.958;9.330;2022-07-04T12:57:03;98604.63;;;27.86;50.35
41260;BME280;26993;48.958;9.330;2022-07-04T12:59:50;98603.56;;;27.37;50.01
41260;BME280;26993;48.958;9.330;2022-07-04T13:02:37;98598.69;;;27.57;52.64
41260;BME280;26993;48.958;9.330;2022-07-04T13:05:24;98600.16;;;27.22;53.05
41260;BME280;26993;48.958;9.330;2022-07-04T13:08:10;98599.41;;;27.07;53.66
41260;BME280;26993;48.958;9.330;2022-07-04T13:10:58;98583.78;;;26.77;52.43
41260;BME280;26993;48.958;9.330;2022-07-04T13:14:02;98585.25;;;27.08;53.66
41260;BME280;26993;48.958;9.330;2022-07-04T13:16:49;98576.75;;;27.03;53.91
41260;BME280;26993;48.958;9.330;2022-07-04T13:19:36;98573.16;;;27.04;52.58
41260;BME280;26993;48.958;9.330;2022-07-04T13:22:23;98573.31;;;27.29;52.86
41260;BME280;26993;48.958;9.330;2022-07-04T13:25:10;98568.22;;;27.26;53.91
41260;BME280;26993;48.958;9.330;2022-07-04T13:27:58;98566.19;;;27.16;53.16
41260;BME280;26993;48.958;9.330;2022-07-04T13:30:45;98568.25;;;26.85;53.72
41260;BME280;26993;48.958;9.330;2022-07-04T13:33:33;98569.06;;;26.73;53.60
41260;BME280;26993;48.958;9.330;2022-07-04T13:36:20;98567.97;;;27.03;54.12
41260;BME280;26993;48.958;9.330;2022-07-04T13:39:07;98562.91;;;27.13;52.94
41260;BME280;26993;48.958;9.330;2022-07-04T13:41:54;98558.50;;;27.13;52.88
41260;BME280;26993;48.958;9.330;2022-07-04T13:44:42;98560.47;;;26.97;52.01
41260;BME280;26993;48.958;9.330;2022-07-04T13:47:29;98559.81;;;26.80;52.99
41260;BME280;26993;48.958;9.330;2022-07-04T13:50:16;98556.69;;;26.60;53.98
41260;BME280;26993;48.958;9.330;2022-07-04T13:53:03;98566.31;;;26.74;54.03
41260;BME280;26993;48.958;9.330;2022-07-04T13:55:50;98566.72;;;26.96;53.12
41260;BME280;26993;48.958;9.330;2022-07-04T13:58:40;98565.75;;;26.97;52.69
41260;BME280;26993;48.958;9.330;2022-07-04T14:01:28;98562.38;;;26.67;54.21
41260;BME280;26993;48.958;9.330;2022-07-04T14:04:14;98556.31;;;26.92;53.13
41260;BME280;26993;48.958;9.330;2022-07-04T14:07:02;98557.09;;;27.07;54.20
41260;BME280;26993;48.958;9.330;2022-07-04T14:09:48;98554.66;;;27.17;54.29
41260;BME280;26993;48.958;9.330;2022-07-04T14:12:35;98555.19;;;27.22;52.13
41260;BME280;26993;48.958;9.330;2022-07-04T14:15:22;98553.81;;;27.04;54.06
41260;BME280;26993;48.958;9.330;2022-07-04T14:18:10;98547.88;;;27.26;52.01
41260;BME280;26993;48.958;9.330;2022-07-04T14:20:59;98549.19;;;27.46;51.69
41260;BME280;26993;48.958;9.330;2022-07-04T14:23:45;98553.66;;;27.46;51.11
41260;BME280;26993;48.958;9.330;2022-07-04T14:26:34;98553.81;;;27.30;51.49
41260;BME280;26993;48.958;9.330;2022-07-04T14:29:22;98555.81;;;26.87;51.81
41260;BME280;26993;48.958;9.330;2022-07-04T14:32:08;98551.75;;;26.82;52.41
41260;BME280;26993;48.958;9.330;2022-07-04T14:34:56;98552.31;;;26.87;53.08
41260;BME280;26993;48.958;9.330;2022-07-04T14:37:43;98547.56;;;26.92;51.97
41260;BME280;26993;48.958;9.330;2022-07-04T14:40:30;98545.44;;;26.97;51.74
41260;BME280;26993;48.958;9.330;2022-07-04T14:43:17;98542.09;;;26.95;51.78
41260;BME280;26993;48.958;9.330;2022-07-04T14:46:04;98535.31;;;26.64;52.86
41260;BME280;26993;48.958;9.330;2022-07-04T14:48:50;98538.69;;;26.53;53.51
41260;BME280;26993;48.958;9.330;2022-07-04T14:51:38;98541.47;;;26.64;53.78
41260;BME280;26993;48.958;9.330;2022-07-04T14:54:26;98543.75;;;26.96;52.33
41260;BME280;26993;48.958;9.330;2022-07-04T14:57:13;98538.25;;;26.86;51.95